sensor_id;sensor_type;location;lat;lon;timestamp;temperature;humidity
12426;DHT22;6277;49.824;9.562;2022-07-30T00:01:56;18.30;77.80
12426;DHT22;6277;49.824;9.562;2022-07-30T00:04:21;18.30;77.80
12426;DHT22;6277;49.824;9.562;2022-07-30T00:06:48;18.30;77.80
12426;DHT22;6277;49.824;9.562;2022-07-30T00:09:14;18.30;77.70
12426;DHT22;6277;49.824;9.562;2022-07-30T00:11:39;18.30;77.70
12426;DHT22;6277;49.824;9.562;2022-07-30T00:14:05;18.20;77.60
12426;DHT22;6277;49.824;9.562;2022-07-30T00:16:30;18.20;77.60
12426;DHT22;6277;49.824;9.562;2022-07-30T00:18:56;18.20;77.60
12426;DHT22;6277;49.824;9.562;2022-07-30T00:21:22;18.20;77.70
12426;DHT22;6277;49.824;9.562;2022-07-30T00:23:47;18.20;77.70
12426;DHT22;6277;49.824;9.562;2022-07-30T00:26:13;18.20;77.70
12426;DHT22;6277;49.824;9.562;2022-07-30T00:28:38;18.10;77.80
12426;DHT22;6277;49.824;9.562;2022-07-30T00:31:04;18.10;77.90
12426;DHT22;6277;49.824;9.562;2022-07-30T00:33:29;18.10;78.00
12426;DHT22;6277;49.824;9.562;2022-07-30T00:35:55;18.20;78.20
12426;DHT22;6277;49.824;9.562;2022-07-30T00:38:21;18.10;78.20
12426;DHT22;6277;49.824;9.562;2022-07-30T00:40:48;18.20;78.30
12426;DHT22;6277;49.824;9.562;2022-07-30T00:43:18;18.20;78.50
12426;DHT22;6277;49.824;9.562;2022-07-30T00:45:44;18.20;78.50
12426;DHT22;6277;49.824;9.562;2022-07-30T00:48:13;18.20;78.60
12426;DHT22;6277;49.824;9.562;2022-07-30T00:50:39;18.30;78.60
12426;DHT22;6277;49.824;9.562;2022-07-30T00:53:05;18.30;78.50
12426;DHT22;6277;49.824;9.562;2022-07-30T00:55:30;18.30;78.50
12426;DHT22;6277;49.824;9.562;2022-07-30T00:57:56;18.30;78.50
12426;DHT22;6277;49.824;9.562;2022-07-30T01:00:22;18.30;78.40
12426;DHT22;6277;49.824;9.562;2022-07-30T01:02:48;18.40;78.50
12426;DHT22;6277;49.824;9.562;2022-07-30T01:05:13;18.40;78.50
12426;DHT22;6277;49.824;9.562;2022-07-30T01:07:39;18.40;78.30
12426;DHT22;6277;49.824;9.562;2022-07-30T01:10:06;18.40;78.20
12426;DHT22;6277;49.824;9.562;2022-07-30T01:12:33;18.40;78.10
12426;DHT22;6277;49.824;9.562;2022-07-30T01:15:00;18.40;78.00
12426;DHT22;6277;49.824;9.562;2022-07-30T01:17:26;18.30;77.90
12426;DHT22;6277;49.824;9.562;2022-07-30T01:19:55;18.30;77.70
12426;DHT22;6277;49.824;9.562;2022-07-30T01:27:42;18.20;77.90
12426;DHT22;6277;49.824;9.562;2022-07-30T01:30:09;18.20;77.90
12426;DHT22;6277;49.824;9.562;2022-07-30T01:32:39;18.20;77.60
12426;DHT22;6277;49.824;9.562;2022-07-30T01:35:06;18.10;77.70
12426;DHT22;6277;49.824;9.562;2022-07-30T01:37:33;18.10;77.60
12426;DHT22;6277;49.824;9.562;2022-07-30T01:40:00;18.10;77.70
12426;DHT22;6277;49.824;9.562;2022-07-30T01:42:27;18.00;77.60
12426;DHT22;6277;49.824;9.562;2022-07-30T01:44:54;18.00;77.80
12426;DHT22;6277;49.824;9.562;2022-07-30T01:47:21;18.00;77.80
12426;DHT22;6277;49.824;9.562;2022-07-30T01:49:48;18.00;78.10
12426;DHT22;6277;49.824;9.562;2022-07-30T01:52:17;18.00;78.30
12426;DHT22;6277;49.824;9.562;2022-07-30T01:54:50;18.00;78.50
12426;DHT22;6277;49.824;9.562;2022-07-30T01:57:18;18.00;78.90
12426;DHT22;6277;49.824;9.562;2022-07-30T01:59:49;18.00;79.00
12426;DHT22;6277;49.824;9.562;2022-07-30T02:02:16;18.10;79.40
12426;DHT22;6277;49.824;9.562;2022-07-30T02:04:41;18.10;79.20
12426;DHT22;6277;49.824;9.562;2022-07-30T02:07:23;18.20;79.30
12426;DHT22;6277;49.824;9.562;2022-07-30T02:10:00;18.20;79.40
12426;DHT22;6277;49.824;9.562;2022-07-30T02:12:27;18.20;79.50
12426;DHT22;6277;49.824;9.562;2022-07-30T02:17:28;18.30;79.50
12426;DHT22;6277;49.824;9.562;2022-07-30T02:19:55;18.40;79.60
12426;DHT22;6277;49.824;9.562;2022-07-30T02:22:23;18.40;79.50
12426;DHT22;6277;49.824;9.562;2022-07-30T02:24:51;18.40;79.50
12426;DHT22;6277;49.824;9.562;2022-07-30T02:27:26;18.50;79.60
12426;DHT22;6277;49.824;9.562;2022-07-30T02:29:54;18.50;79.80
12426;DHT22;6277;49.824;9.562;2022-07-30T02:32:23;18.60;79.70
12426;DHT22;6277;49.824;9.562;2022-07-30T02:34:54;18.60;79.80
12426;DHT22;6277;49.824;9.562;2022-07-30T02:37:20;18.70;79.80
12426;DHT22;6277;49.824;9.562;2022-07-30T02:39:48;18.70;79.70
12426;DHT22;6277;49.824;9.562;2022-07-30T02:42:15;18.70;79.40
12426;DHT22;6277;49.824;9.562;2022-07-30T02:44:43;18.80;79.10
12426;DHT22;6277;49.824;9.562;2022-07-30T02:47:11;18.70;78.90
12426;DHT22;6277;49.824;9.562;2022-07-30T02:49:38;18.70;78.70
12426;DHT22;6277;49.824;9.562;2022-07-30T02:52:05;18.70;78.50
12426;DHT22;6277;49.824;9.562;2022-07-30T02:54:36;18.60;78.30
12426;DHT22;6277;49.824;9.562;2022-07-30T02:57:05;18.60;78.40
12426;DHT22;6277;49.824;9.562;2022-07-30T02:59:32;18.50;78.40
12426;DHT22;6277;49.824;9.562;2022-07-30T03:02:01;18.50;78.50
12426;DHT22;6277;49.824;9.562;2022-07-30T03:04:28;18.50;78.40
12426;DHT22;6277;49.824;9.562;2022-07-30T03:06:55;18.40;78.30
12426;DHT22;6277;49.824;9.562;2022-07-30T03:09:21;18.40;78.40
12426;DHT22;6277;49.824;9.562;2022-07-30T03:11:48;18.40;78.50
12426;DHT22;6277;49.824;9.562;2022-07-30T03:14:15;18.40;78.50
12426;DHT22;6277;49.824;9.562;2022-07-30T03:16:47;18.30;78.50
12426;DHT22;6277;49.824;9.562;2022-07-30T03:19:16;18.30;78.60
12426;DHT22;6277;49.824;9.562;2022-07-30T03:21:45;18.30;78.50
12426;DHT22;6277;49.824;9.562;2022-07-30T03:24:11;18.30;78.50
12426;DHT22;6277;49.824;9.562;2022-07-30T03:26:39;18.30;78.60
12426;DHT22;6277;49.824;9.562;2022-07-30T03:29:08;18.30;78.70
12426;DHT22;6277;49.824;9.562;2022-07-30T03:31:35;18.30;78.90
12426;DHT22;6277;49.824;9.562;2022-07-30T03:34:02;18.30;78.90
12426;DHT22;6277;49.824;9.562;2022-07-30T03:36:29;18.40;79.00
12426;DHT22;6277;49.824;9.562;2022-07-30T03:38:55;18.40;79.10
12426;DHT22;6277;49.824;9.562;2022-07-30T03:41:21;18.40;79.10
12426;DHT22;6277;49.824;9.562;2022-07-30T03:43:48;18.40;79.20
12426;DHT22;6277;49.824;9.562;2022-07-30T03:46:15;18.40;79.20
12426;DHT22;6277;49.824;9.562;2022-07-30T03:48:41;18.50;79.30
12426;DHT22;6277;49.824;9.562;2022-07-30T03:51:08;18.50;79.30
12426;DHT22;6277;49.824;9.562;2022-07-30T03:53:34;18.50;79.20
12426;DHT22;6277;49.824;9.562;2022-07-30T03:56:01;18.50;79.20
12426;DHT22;6277;49.824;9.562;2022-07-30T03:58:27;18.50;79.00
12426;DHT22;6277;49.824;9.562;2022-07-30T04:00:53;18.50;79.00
12426;DHT22;6277;49.824;9.562;2022-07-30T04:03:30;18.50;78.90
12426;DHT22;6277;49.824;9.562;2022-07-30T04:05:56;18.50;79.00
12426;DHT22;6277;49.824;9.562;2022-07-30T04:08:22;18.50;78.70
12426;DHT22;6277;49.824;9.562;2022-07-30T04:10:49;18.50;78.60
12426;DHT22;6277;49.824;9.562;2022-07-30T04:13:15;18.50;78.40
12426;DHT22;6277;49.824;9.562;2022-07-30T04:16:17;18.50;78.40
12426;DHT22;6277;49.824;9.562;2022-07-30T04:18:48;18.50;78.60
12426;DHT22;6277;49.824;9.562;2022-07-30T04:21:17;18.40;78.50
12426;DHT22;6277;49.824;9.562;2022-07-30T04:23:44;18.40;78.50
12426;DHT22;6277;49.824;9.562;2022-07-30T04:26:10;18.40;78.50
12426;DHT22;6277;49.824;9.562;2022-07-30T04:28:36;18.40;78.40
12426;DHT22;6277;49.824;9.562;2022-07-30T04:31:04;18.40;78.30
12426;DHT22;6277;49.824;9.562;2022-07-30T04:33:30;18.40;78.30
12426;DHT22;6277;49.824;9.562;2022-07-30T04:35:56;18.30;78.30
12426;DHT22;6277;49.824;9.562;2022-07-30T04:38:21;18.30;78.30
12426;DHT22;6277;49.824;9.562;2022-07-30T04:40:48;18.30;78.40
12426;DHT22;6277;49.824;9.562;2022-07-30T04:43:14;18.20;78.50
12426;DHT22;6277;49.824;9.562;2022-07-30T04:45:40;18.20;78.50
12426;DHT22;6277;49.824;9.562;2022-07-30T04:48:06;18.20;78.60
12426;DHT22;6277;49.824;9.562;2022-07-30T04:50:33;18.20;78.70
12426;DHT22;6277;49.824;9.562;2022-07-30T04:53:00;18.30;78.70
12426;DHT22;6277;49.824;9.562;2022-07-30T04:55:27;18.30;78.70
12426;DHT22;6277;49.824;9.562;2022-07-30T04:57:54;18.30;78.70
12426;DHT22;6277;49.824;9.562;2022-07-30T05:00:20;18.30;78.70
12426;DHT22;6277;49.824;9.562;2022-07-30T05:02:48;18.30;78.70
12426;DHT22;6277;49.824;9.562;2022-07-30T05:05:14;18.40;78.70
12426;DHT22;6277;49.824;9.562;2022-07-30T05:07:41;18.30;78.60
12426;DHT22;6277;49.824;9.562;2022-07-30T05:10:09;18.30;78.70
12426;DHT22;6277;49.824;9.562;2022-07-30T05:12:35;18.30;78.80
12426;DHT22;6277;49.824;9.562;2022-07-30T05:15:05;18.30;78.90
12426;DHT22;6277;49.824;9.562;2022-07-30T05:17:31;18.40;78.90
12426;DHT22;6277;49.824;9.562;2022-07-30T05:19:57;18.40;78.90
12426;DHT22;6277;49.824;9.562;2022-07-30T05:22:23;18.40;78.90
12426;DHT22;6277;49.824;9.562;2022-07-30T05:24:50;18.40;78.80
12426;DHT22;6277;49.824;9.562;2022-07-30T05:27:15;18.50;79.00
12426;DHT22;6277;49.824;9.562;2022-07-30T05:29:41;18.50;79.20
12426;DHT22;6277;49.824;9.562;2022-07-30T05:32:06;18.50;79.20
12426;DHT22;6277;49.824;9.562;2022-07-30T05:34:32;18.60;79.30
12426;DHT22;6277;49.824;9.562;2022-07-30T05:36:57;18.60;79.20
12426;DHT22;6277;49.824;9.562;2022-07-30T05:39:23;18.70;79.20
12426;DHT22;6277;49.824;9.562;2022-07-30T05:41:48;18.70;79.30
12426;DHT22;6277;49.824;9.562;2022-07-30T05:44:14;18.70;79.20
12426;DHT22;6277;49.824;9.562;2022-07-30T05:46:40;18.80;79.20
12426;DHT22;6277;49.824;9.562;2022-07-30T05:49:06;18.90;79.20
12426;DHT22;6277;49.824;9.562;2022-07-30T05:51:32;18.90;79.20
12426;DHT22;6277;49.824;9.562;2022-07-30T05:53:58;19.00;79.30
12426;DHT22;6277;49.824;9.562;2022-07-30T05:56:23;19.00;79.20
12426;DHT22;6277;49.824;9.562;2022-07-30T05:58:49;19.10;79.20
12426;DHT22;6277;49.824;9.562;2022-07-30T06:01:14;19.10;79.20
12426;DHT22;6277;49.824;9.562;2022-07-30T06:03:40;19.10;79.20
12426;DHT22;6277;49.824;9.562;2022-07-30T06:06:06;19.10;79.10
12426;DHT22;6277;49.824;9.562;2022-07-30T06:08:31;19.20;79.20
12426;DHT22;6277;49.824;9.562;2022-07-30T06:10:57;19.20;79.20
12426;DHT22;6277;49.824;9.562;2022-07-30T06:13:23;19.30;79.10
12426;DHT22;6277;49.824;9.562;2022-07-30T06:15:48;19.30;79.00
12426;DHT22;6277;49.824;9.562;2022-07-30T06:18:14;19.30;79.00
12426;DHT22;6277;49.824;9.562;2022-07-30T06:20:39;19.30;79.20
12426;DHT22;6277;49.824;9.562;2022-07-30T06:23:06;19.30;79.40
12426;DHT22;6277;49.824;9.562;2022-07-30T06:25:31;19.40;79.70
12426;DHT22;6277;49.824;9.562;2022-07-30T06:27:57;19.50;79.70
12426;DHT22;6277;49.824;9.562;2022-07-30T06:30:22;19.50;79.70
12426;DHT22;6277;49.824;9.562;2022-07-30T06:32:48;19.60;79.80
12426;DHT22;6277;49.824;9.562;2022-07-30T06:35:14;19.70;79.80
12426;DHT22;6277;49.824;9.562;2022-07-30T06:37:39;19.70;79.80
12426;DHT22;6277;49.824;9.562;2022-07-30T06:40:07;19.80;79.90
12426;DHT22;6277;49.824;9.562;2022-07-30T06:42:33;19.90;80.00
12426;DHT22;6277;49.824;9.562;2022-07-30T06:44:59;20.00;79.90
12426;DHT22;6277;49.824;9.562;2022-07-30T06:47:24;20.00;79.80
12426;DHT22;6277;49.824;9.562;2022-07-30T06:49:54;20.10;79.80
12426;DHT22;6277;49.824;9.562;2022-07-30T06:52:20;20.20;79.90
12426;DHT22;6277;49.824;9.562;2022-07-30T06:54:46;20.30;79.90
12426;DHT22;6277;49.824;9.562;2022-07-30T06:57:13;20.40;79.90
12426;DHT22;6277;49.824;9.562;2022-07-30T06:59:38;20.50;80.00
12426;DHT22;6277;49.824;9.562;2022-07-30T07:02:04;20.60;80.00
12426;DHT22;6277;49.824;9.562;2022-07-30T07:04:29;20.70;80.20
12426;DHT22;6277;49.824;9.562;2022-07-30T07:06:57;20.80;80.40
12426;DHT22;6277;49.824;9.562;2022-07-30T07:09:22;20.90;80.70
12426;DHT22;6277;49.824;9.562;2022-07-30T07:11:48;21.10;80.70
12426;DHT22;6277;49.824;9.562;2022-07-30T07:14:13;21.30;80.30
12426;DHT22;6277;49.824;9.562;2022-07-30T07:16:39;21.40;79.80
12426;DHT22;6277;49.824;9.562;2022-07-30T07:19:05;21.50;79.30
12426;DHT22;6277;49.824;9.562;2022-07-30T07:21:30;21.60;79.00
12426;DHT22;6277;49.824;9.562;2022-07-30T07:23:56;21.70;78.80
12426;DHT22;6277;49.824;9.562;2022-07-30T07:26:24;21.90;78.40
12426;DHT22;6277;49.824;9.562;2022-07-30T07:28:50;22.00;77.80
12426;DHT22;6277;49.824;9.562;2022-07-30T07:31:16;22.10;77.60
12426;DHT22;6277;49.824;9.562;2022-07-30T07:33:41;22.10;77.30
12426;DHT22;6277;49.824;9.562;2022-07-30T07:36:07;22.10;76.60
12426;DHT22;6277;49.824;9.562;2022-07-30T07:38:33;22.20;75.90
12426;DHT22;6277;49.824;9.562;2022-07-30T07:40:58;22.20;75.90
12426;DHT22;6277;49.824;9.562;2022-07-30T07:43:25;22.20;75.80
12426;DHT22;6277;49.824;9.562;2022-07-30T07:45:50;22.20;75.80
12426;DHT22;6277;49.824;9.562;2022-07-30T07:48:17;22.20;75.80
12426;DHT22;6277;49.824;9.562;2022-07-30T07:50:43;22.20;75.90
12426;DHT22;6277;49.824;9.562;2022-07-30T07:53:08;22.20;75.80
12426;DHT22;6277;49.824;9.562;2022-07-30T07:55:34;22.20;75.60
12426;DHT22;6277;49.824;9.562;2022-07-30T07:58:00;22.30;75.40
12426;DHT22;6277;49.824;9.562;2022-07-30T08:00:26;22.30;75.10
12426;DHT22;6277;49.824;9.562;2022-07-30T08:02:51;22.30;75.60
12426;DHT22;6277;49.824;9.562;2022-07-30T08:05:17;22.40;75.00
12426;DHT22;6277;49.824;9.562;2022-07-30T08:07:43;22.40;75.00
12426;DHT22;6277;49.824;9.562;2022-07-30T08:10:10;22.50;74.80
12426;DHT22;6277;49.824;9.562;2022-07-30T08:12:38;22.50;74.50
12426;DHT22;6277;49.824;9.562;2022-07-30T08:15:05;22.60;73.90
12426;DHT22;6277;49.824;9.562;2022-07-30T08:17:31;22.60;73.10
12426;DHT22;6277;49.824;9.562;2022-07-30T08:20:00;22.60;72.70
12426;DHT22;6277;49.824;9.562;2022-07-30T08:22:26;22.60;71.70
12426;DHT22;6277;49.824;9.562;2022-07-30T08:24:52;22.60;72.00
12426;DHT22;6277;49.824;9.562;2022-07-30T08:27:18;22.70;71.60
12426;DHT22;6277;49.824;9.562;2022-07-30T08:29:43;22.70;71.30
12426;DHT22;6277;49.824;9.562;2022-07-30T08:32:09;22.70;71.50
12426;DHT22;6277;49.824;9.562;2022-07-30T08:34:34;22.70;71.10
12426;DHT22;6277;49.824;9.562;2022-07-30T08:37:00;22.80;70.70
12426;DHT22;6277;49.824;9.562;2022-07-30T08:39:25;22.80;70.80
12426;DHT22;6277;49.824;9.562;2022-07-30T08:41:51;22.90;70.60
12426;DHT22;6277;49.824;9.562;2022-07-30T08:44:17;22.80;70.40
12426;DHT22;6277;49.824;9.562;2022-07-30T08:46:45;22.90;70.80
12426;DHT22;6277;49.824;9.562;2022-07-30T08:49:11;23.00;70.50
12426;DHT22;6277;49.824;9.562;2022-07-30T08:51:37;23.00;70.20
12426;DHT22;6277;49.824;9.562;2022-07-30T08:54:03;23.10;70.10
12426;DHT22;6277;49.824;9.562;2022-07-30T08:56:31;23.20;69.60
12426;DHT22;6277;49.824;9.562;2022-07-30T08:58:58;23.20;69.00
12426;DHT22;6277;49.824;9.562;2022-07-30T09:01:24;23.30;69.10
12426;DHT22;6277;49.824;9.562;2022-07-30T09:03:49;23.30;68.80
12426;DHT22;6277;49.824;9.562;2022-07-30T09:06:15;23.40;68.90
12426;DHT22;6277;49.824;9.562;2022-07-30T09:08:41;23.50;68.40
12426;DHT22;6277;49.824;9.562;2022-07-30T09:11:07;23.50;68.20
12426;DHT22;6277;49.824;9.562;2022-07-30T09:13:34;23.60;68.00
12426;DHT22;6277;49.824;9.562;2022-07-30T09:16:01;23.60;67.10
12426;DHT22;6277;49.824;9.562;2022-07-30T09:18:45;23.70;66.80
12426;DHT22;6277;49.824;9.562;2022-07-30T09:21:25;23.80;66.00
12426;DHT22;6277;49.824;9.562;2022-07-30T09:24:00;23.80;65.80
12426;DHT22;6277;49.824;9.562;2022-07-30T09:26:28;23.90;65.20
12426;DHT22;6277;49.824;9.562;2022-07-30T09:28:54;23.90;65.30
12426;DHT22;6277;49.824;9.562;2022-07-30T09:31:21;24.00;65.10
12426;DHT22;6277;49.824;9.562;2022-07-30T09:33:47;24.10;64.90
12426;DHT22;6277;49.824;9.562;2022-07-30T09:36:15;24.10;63.90
12426;DHT22;6277;49.824;9.562;2022-07-30T09:38:45;24.20;63.80
12426;DHT22;6277;49.824;9.562;2022-07-30T09:41:12;24.20;64.20
12426;DHT22;6277;49.824;9.562;2022-07-30T09:43:45;24.30;63.90
12426;DHT22;6277;49.824;9.562;2022-07-30T09:46:12;24.40;62.80
12426;DHT22;6277;49.824;9.562;2022-07-30T09:48:38;24.50;63.50
12426;DHT22;6277;49.824;9.562;2022-07-30T09:51:03;24.50;62.80
12426;DHT22;6277;49.824;9.562;2022-07-30T09:53:29;24.60;63.00
12426;DHT22;6277;49.824;9.562;2022-07-30T09:55:57;24.70;62.20
12426;DHT22;6277;49.824;9.562;2022-07-30T09:58:22;24.80;62.30
12426;DHT22;6277;49.824;9.562;2022-07-30T10:00:55;24.80;61.50
12426;DHT22;6277;49.824;9.562;2022-07-30T10:03:24;24.80;59.80
12426;DHT22;6277;49.824;9.562;2022-07-30T10:05:58;25.00;60.70
12426;DHT22;6277;49.824;9.562;2022-07-30T10:11:14;25.10;58.50
12426;DHT22;6277;49.824;9.562;2022-07-30T10:13:41;25.20;59.40
12426;DHT22;6277;49.824;9.562;2022-07-30T10:16:07;25.20;59.40
12426;DHT22;6277;49.824;9.562;2022-07-30T10:18:33;25.30;59.60
12426;DHT22;6277;49.824;9.562;2022-07-30T10:21:00;25.30;58.80
12426;DHT22;6277;49.824;9.562;2022-07-30T10:23:27;25.40;58.80
12426;DHT22;6277;49.824;9.562;2022-07-30T10:25:58;25.40;58.50
12426;DHT22;6277;49.824;9.562;2022-07-30T10:28:25;25.50;57.80
12426;DHT22;6277;49.824;9.562;2022-07-30T10:30:52;25.60;58.00
12426;DHT22;6277;49.824;9.562;2022-07-30T10:33:21;25.70;58.10
12426;DHT22;6277;49.824;9.562;2022-07-30T10:35:47;25.80;57.80
12426;DHT22;6277;49.824;9.562;2022-07-30T10:38:14;25.90;57.30
12426;DHT22;6277;49.824;9.562;2022-07-30T10:40:52;26.00;57.50
12426;DHT22;6277;49.824;9.562;2022-07-30T10:49:07;26.40;55.00
12426;DHT22;6277;49.824;9.562;2022-07-30T10:52:02;26.50;54.70
12426;DHT22;6277;49.824;9.562;2022-07-30T10:54:38;26.60;56.40
12426;DHT22;6277;49.824;9.562;2022-07-30T10:57:16;26.70;56.40
12426;DHT22;6277;49.824;9.562;2022-07-30T11:02:15;27.10;55.10
12426;DHT22;6277;49.824;9.562;2022-07-30T11:04:41;27.20;55.70
12426;DHT22;6277;49.824;9.562;2022-07-30T11:09:53;27.50;53.80
12426;DHT22;6277;49.824;9.562;2022-07-30T11:15:07;27.50;52.60
12426;DHT22;6277;49.824;9.562;2022-07-30T11:20:24;27.50;52.80
12426;DHT22;6277;49.824;9.562;2022-07-30T11:22:49;27.60;53.40
12426;DHT22;6277;49.824;9.562;2022-07-30T11:27:48;27.60;52.10
12426;DHT22;6277;49.824;9.562;2022-07-30T11:32:47;27.70;52.90
12426;DHT22;6277;49.824;9.562;2022-07-30T11:35:19;27.70;52.70
12426;DHT22;6277;49.824;9.562;2022-07-30T11:46:07;27.50;50.00
12426;DHT22;6277;49.824;9.562;2022-07-30T11:48:33;27.50;48.80
12426;DHT22;6277;49.824;9.562;2022-07-30T11:50:59;27.40;51.30
12426;DHT22;6277;49.824;9.562;2022-07-30T11:53:25;27.30;51.20
12426;DHT22;6277;49.824;9.562;2022-07-30T11:55:53;27.30;51.30
12426;DHT22;6277;49.824;9.562;2022-07-30T11:58:35;27.30;51.20
12426;DHT22;6277;49.824;9.562;2022-07-30T12:01:03;27.30;50.70
12426;DHT22;6277;49.824;9.562;2022-07-30T12:03:30;27.30;51.40
12426;DHT22;6277;49.824;9.562;2022-07-30T12:06:07;27.30;50.80
12426;DHT22;6277;49.824;9.562;2022-07-30T12:08:41;27.40;49.90
12426;DHT22;6277;49.824;9.562;2022-07-30T12:11:06;27.40;49.50
12426;DHT22;6277;49.824;9.562;2022-07-30T12:13:32;27.40;50.50
12426;DHT22;6277;49.824;9.562;2022-07-30T12:15:58;27.50;50.30
12426;DHT22;6277;49.824;9.562;2022-07-30T12:18:26;27.50;50.50
12426;DHT22;6277;49.824;9.562;2022-07-30T12:21:03;27.60;50.40
12426;DHT22;6277;49.824;9.562;2022-07-30T12:23:30;27.60;48.90
12426;DHT22;6277;49.824;9.562;2022-07-30T12:25:56;27.70;49.70
12426;DHT22;6277;49.824;9.562;2022-07-30T12:28:27;27.80;49.80
12426;DHT22;6277;49.824;9.562;2022-07-30T12:30:54;27.80;49.00
12426;DHT22;6277;49.824;9.562;2022-07-30T12:33:20;27.90;49.20
12426;DHT22;6277;49.824;9.562;2022-07-30T12:35:55;27.90;49.30
12426;DHT22;6277;49.824;9.562;2022-07-30T12:38:22;27.90;47.60
12426;DHT22;6277;49.824;9.562;2022-07-30T12:40:55;28.00;48.80
12426;DHT22;6277;49.824;9.562;2022-07-30T12:46:10;28.00;46.70
12426;DHT22;6277;49.824;9.562;2022-07-30T12:48:36;28.10;48.70
12426;DHT22;6277;49.824;9.562;2022-07-30T12:51:08;28.10;48.70
12426;DHT22;6277;49.824;9.562;2022-07-30T12:53:35;28.20;47.80
12426;DHT22;6277;49.824;9.562;2022-07-30T12:56:10;28.20;48.20
12426;DHT22;6277;49.824;9.562;2022-07-30T12:58:36;28.30;47.70
12426;DHT22;6277;49.824;9.562;2022-07-30T13:01:02;28.30;47.70
12426;DHT22;6277;49.824;9.562;2022-07-30T13:03:28;28.30;47.50
12426;DHT22;6277;49.824;9.562;2022-07-30T13:08:54;28.50;46.90
12426;DHT22;6277;49.824;9.562;2022-07-30T13:11:24;28.60;45.30
12426;DHT22;6277;49.824;9.562;2022-07-30T13:13:51;28.70;46.70
12426;DHT22;6277;49.824;9.562;2022-07-30T13:16:18;28.80;46.80
12426;DHT22;6277;49.824;9.562;2022-07-30T13:18:44;28.80;46.50
12426;DHT22;6277;49.824;9.562;2022-07-30T13:21:10;28.90;45.90
12426;DHT22;6277;49.824;9.562;2022-07-30T13:23:37;29.00;45.70
12426;DHT22;6277;49.824;9.562;2022-07-30T13:26:04;29.10;45.30
12426;DHT22;6277;49.824;9.562;2022-07-30T13:28:30;29.10;45.40
12426;DHT22;6277;49.824;9.562;2022-07-30T13:30:56;29.20;45.40
12426;DHT22;6277;49.824;9.562;2022-07-30T13:33:22;29.30;45.20
12426;DHT22;6277;49.824;9.562;2022-07-30T13:35:47;29.50;45.20
12426;DHT22;6277;49.824;9.562;2022-07-30T13:38:13;29.60;44.80
12426;DHT22;6277;49.824;9.562;2022-07-30T13:40:40;29.80;44.80
12426;DHT22;6277;49.824;9.562;2022-07-30T13:43:06;29.90;44.90
12426;DHT22;6277;49.824;9.562;2022-07-30T13:45:32;30.00;44.10
12426;DHT22;6277;49.824;9.562;2022-07-30T13:47:58;30.10;44.30
12426;DHT22;6277;49.824;9.562;2022-07-30T13:50:24;30.20;43.90
12426;DHT22;6277;49.824;9.562;2022-07-30T13:52:50;30.30;43.20
12426;DHT22;6277;49.824;9.562;2022-07-30T13:55:15;30.40;43.30
12426;DHT22;6277;49.824;9.562;2022-07-30T13:57:41;30.50;43.50
12426;DHT22;6277;49.824;9.562;2022-07-30T14:00:08;30.70;43.00
12426;DHT22;6277;49.824;9.562;2022-07-30T14:02:34;30.70;42.00
12426;DHT22;6277;49.824;9.562;2022-07-30T14:05:00;30.90;41.70
12426;DHT22;6277;49.824;9.562;2022-07-30T14:07:34;31.00;41.40
12426;DHT22;6277;49.824;9.562;2022-07-30T14:10:01;31.00;41.60
12426;DHT22;6277;49.824;9.562;2022-07-30T14:12:27;31.00;40.70
12426;DHT22;6277;49.824;9.562;2022-07-30T14:14:53;31.00;40.60
12426;DHT22;6277;49.824;9.562;2022-07-30T14:17:18;31.00;40.30
12426;DHT22;6277;49.824;9.562;2022-07-30T14:19:44;30.90;40.00
12426;DHT22;6277;49.824;9.562;2022-07-30T14:22:09;30.90;40.20
12426;DHT22;6277;49.824;9.562;2022-07-30T14:24:35;30.90;40.10
12426;DHT22;6277;49.824;9.562;2022-07-30T14:27:00;30.80;40.00
12426;DHT22;6277;49.824;9.562;2022-07-30T14:29:26;30.80;40.00
12426;DHT22;6277;49.824;9.562;2022-07-30T14:31:53;30.80;40.10
12426;DHT22;6277;49.824;9.562;2022-07-30T14:34:18;30.90;40.00
12426;DHT22;6277;49.824;9.562;2022-07-30T14:36:44;31.00;40.30
12426;DHT22;6277;49.824;9.562;2022-07-30T14:39:09;31.10;39.80
12426;DHT22;6277;49.824;9.562;2022-07-30T14:41:35;31.10;39.30
12426;DHT22;6277;49.824;9.562;2022-07-30T14:44:03;31.20;39.30
12426;DHT22;6277;49.824;9.562;2022-07-30T14:46:29;31.30;38.90
12426;DHT22;6277;49.824;9.562;2022-07-30T14:48:54;31.30;37.80
12426;DHT22;6277;49.824;9.562;2022-07-30T14:51:20;31.40;38.10
12426;DHT22;6277;49.824;9.562;2022-07-30T14:53:47;31.40;38.30
12426;DHT22;6277;49.824;9.562;2022-07-30T14:56:15;31.40;38.10
12426;DHT22;6277;49.824;9.562;2022-07-30T14:58:40;31.50;38.00
12426;DHT22;6277;49.824;9.562;2022-07-30T15:01:06;31.60;38.00
12426;DHT22;6277;49.824;9.562;2022-07-30T15:03:33;31.70;37.90
12426;DHT22;6277;49.824;9.562;2022-07-30T15:05:59;31.80;38.00
12426;DHT22;6277;49.824;9.562;2022-07-30T15:08:25;32.10;37.90
12426;DHT22;6277;49.824;9.562;2022-07-30T15:10:51;32.30;37.70
12426;DHT22;6277;49.824;9.562;2022-07-30T15:13:17;32.50;37.30
12426;DHT22;6277;49.824;9.562;2022-07-30T15:15:42;32.70;37.20
12426;DHT22;6277;49.824;9.562;2022-07-30T15:18:08;33.00;36.90
12426;DHT22;6277;49.824;9.562;2022-07-30T15:20:33;33.20;36.70
12426;DHT22;6277;49.824;9.562;2022-07-30T15:22:59;33.50;36.60
12426;DHT22;6277;49.824;9.562;2022-07-30T15:25:24;33.70;36.20
12426;DHT22;6277;49.824;9.562;2022-07-30T15:27:50;33.90;36.00
12426;DHT22;6277;49.824;9.562;2022-07-30T15:30:16;34.10;35.80
12426;DHT22;6277;49.824;9.562;2022-07-30T15:32:42;34.20;35.10
12426;DHT22;6277;49.824;9.562;2022-07-30T15:35:08;34.30;34.40
12426;DHT22;6277;49.824;9.562;2022-07-30T15:37:33;34.30;34.20
12426;DHT22;6277;49.824;9.562;2022-07-30T15:39:59;34.30;34.10
12426;DHT22;6277;49.824;9.562;2022-07-30T15:42:24;34.20;33.60
12426;DHT22;6277;49.824;9.562;2022-07-30T15:44:52;34.10;33.30
12426;DHT22;6277;49.824;9.562;2022-07-30T15:47:17;33.90;33.20
12426;DHT22;6277;49.824;9.562;2022-07-30T15:49:43;33.90;33.30
12426;DHT22;6277;49.824;9.562;2022-07-30T15:52:09;33.70;33.60
12426;DHT22;6277;49.824;9.562;2022-07-30T15:54:34;33.50;33.20
12426;DHT22;6277;49.824;9.562;2022-07-30T15:57:00;33.50;33.30
12426;DHT22;6277;49.824;9.562;2022-07-30T15:59:26;33.50;33.50
12426;DHT22;6277;49.824;9.562;2022-07-30T16:01:52;33.70;33.80
12426;DHT22;6277;49.824;9.562;2022-07-30T16:04:18;33.80;33.50
12426;DHT22;6277;49.824;9.562;2022-07-30T16:06:43;34.00;33.10
12426;DHT22;6277;49.824;9.562;2022-07-30T16:09:09;34.20;32.70
12426;DHT22;6277;49.824;9.562;2022-07-30T16:11:34;34.30;32.60
12426;DHT22;6277;49.824;9.562;2022-07-30T16:14:00;34.50;32.60
12426;DHT22;6277;49.824;9.562;2022-07-30T16:16:26;34.70;32.20
12426;DHT22;6277;49.824;9.562;2022-07-30T16:18:52;35.00;32.20
12426;DHT22;6277;49.824;9.562;2022-07-30T16:21:17;35.20;31.90
12426;DHT22;6277;49.824;9.562;2022-07-30T16:23:43;35.30;31.50
12426;DHT22;6277;49.824;9.562;2022-07-30T16:26:10;35.40;30.70
12426;DHT22;6277;49.824;9.562;2022-07-30T16:28:36;35.40;29.90
12426;DHT22;6277;49.824;9.562;2022-07-30T16:31:03;35.30;29.60